sensor_id;sensor_type;location;lat;lon;timestamp;temperature;humidity
74416;SHT31;62850;42.428;25.618;2022-08-19T00:01:31;25.77;55.55
74416;SHT31;62850;42.428;25.618;2022-08-19T00:03:58;25.72;55.64
74416;SHT31;62850;42.428;25.618;2022-08-19T00:06:26;25.68;55.68
74416;SHT31;62850;42.428;25.618;2022-08-19T00:08:52;25.64;55.65
74416;SHT31;62850;42.428;25.618;2022-08-19T00:11:17;25.60;55.91
74416;SHT31;62850;42.428;25.618;2022-08-19T00:13:43;25.57;56.03
74416;SHT31;62850;42.428;25.618;2022-08-19T00:16:10;25.60;56.03
74416;SHT31;62850;42.428;25.618;2022-08-19T00:18:36;25.61;55.85
74416;SHT31;62850;42.428;25.618;2022-08-19T00:21:02;25.57;56.15
74416;SHT31;62850;42.428;25.618;2022-08-19T00:23:28;25.57;56.43
74416;SHT31;62850;42.428;25.618;2022-08-19T00:25:55;25.50;56.36
74416;SHT31;62850;42.428;25.618;2022-08-19T00:28:21;25.38;56.77
74416;SHT31;62850;42.428;25.618;2022-08-19T00:30:46;25.34;57.07
74416;SHT31;62850;42.428;25.618;2022-08-19T00:33:12;25.26;57.26
74416;SHT31;62850;42.428;25.618;2022-08-19T00:35:39;25.19;57.51
74416;SHT31;62850;42.428;25.618;2022-08-19T00:38:04;25.14;57.66
74416;SHT31;62850;42.428;25.618;2022-08-19T00:40:32;25.17;57.29
74416;SHT31;62850;42.428;25.618;2022-08-19T00:42:57;25.14;57.35
74416;SHT31;62850;42.428;25.618;2022-08-19T00:45:26;25.12;57.36
74416;SHT31;62850;42.428;25.618;2022-08-19T00:47:52;25.17;57.44
74416;SHT31;62850;42.428;25.618;2022-08-19T00:50:19;25.14;57.42
74416;SHT31;62850;42.428;25.618;2022-08-19T00:52:49;25.12;57.79
74416;SHT31;62850;42.428;25.618;2022-08-19T00:55:20;25.14;57.44
74416;SHT31;62850;42.428;25.618;2022-08-19T00:57:52;25.07;57.58
74416;SHT31;62850;42.428;25.618;2022-08-19T01:00:20;25.12;57.41
74416;SHT31;62850;42.428;25.618;2022-08-19T01:02:47;25.06;57.76
74416;SHT31;62850;42.428;25.618;2022-08-19T01:05:19;25.03;57.94
74416;SHT31;62850;42.428;25.618;2022-08-19T01:07:47;25.03;58.22
74416;SHT31;62850;42.428;25.618;2022-08-19T01:10:16;25.00;57.91
74416;SHT31;62850;42.428;25.618;2022-08-19T01:12:45;25.03;58.06
74416;SHT31;62850;42.428;25.618;2022-08-19T01:15:14;25.03;58.12
74416;SHT31;62850;42.428;25.618;2022-08-19T01:17:41;24.97;58.34
74416;SHT31;62850;42.428;25.618;2022-08-19T01:20:13;24.96;58.02
74416;SHT31;62850;42.428;25.618;2022-08-19T01:22:45;24.99;58.28
74416;SHT31;62850;42.428;25.618;2022-08-19T01:25:17;24.99;58.17
74416;SHT31;62850;42.428;25.618;2022-08-19T01:27:45;25.00;58.39
74416;SHT31;62850;42.428;25.618;2022-08-19T01:30:19;25.02;58.06
74416;SHT31;62850;42.428;25.618;2022-08-19T01:32:45;24.96;58.14
74416;SHT31;62850;42.428;25.618;2022-08-19T01:35:12;24.95;58.06
74416;SHT31;62850;42.428;25.618;2022-08-19T01:37:55;25.00;57.64
74416;SHT31;62850;42.428;25.618;2022-08-19T01:40:23;25.06;57.51
74416;SHT31;62850;42.428;25.618;2022-08-19T01:42:50;25.16;56.93
74416;SHT31;62850;42.428;25.618;2022-08-19T01:45:19;25.22;56.92
74416;SHT31;62850;42.428;25.618;2022-08-19T01:47:45;25.28;57.06
74416;SHT31;62850;42.428;25.618;2022-08-19T01:50:12;25.38;56.81
74416;SHT31;62850;42.428;25.618;2022-08-19T01:52:40;25.40;56.57
74416;SHT31;62850;42.428;25.618;2022-08-19T01:55:09;25.31;56.96
74416;SHT31;62850;42.428;25.618;2022-08-19T01:57:36;25.31;57.14
74416;SHT31;62850;42.428;25.618;2022-08-19T02:00:06;25.17;57.37
74416;SHT31;62850;42.428;25.618;2022-08-19T02:02:33;25.23;57.38
74416;SHT31;62850;42.428;25.618;2022-08-19T02:04:58;25.27;57.46
74416;SHT31;62850;42.428;25.618;2022-08-19T02:07:24;25.22;57.49
74416;SHT31;62850;42.428;25.618;2022-08-19T02:09:49;25.24;57.43
74416;SHT31;62850;42.428;25.618;2022-08-19T02:12:15;25.14;57.58
74416;SHT31;62850;42.428;25.618;2022-08-19T02:14:42;25.19;57.53
74416;SHT31;62850;42.428;25.618;2022-08-19T02:17:08;25.17;57.70
74416;SHT31;62850;42.428;25.618;2022-08-19T02:19:34;25.10;57.80
74416;SHT31;62850;42.428;25.618;2022-08-19T02:22:00;25.09;57.81
74416;SHT31;62850;42.428;25.618;2022-08-19T02:24:26;25.03;58.05
74416;SHT31;62850;42.428;25.618;2022-08-19T02:26:52;24.92;58.31
74416;SHT31;62850;42.428;25.618;2022-08-19T02:29:18;24.95;58.35
74416;SHT31;62850;42.428;25.618;2022-08-19T02:31:44;24.97;57.97
74416;SHT31;62850;42.428;25.618;2022-08-19T02:34:09;25.13;57.27
74416;SHT31;62850;42.428;25.618;2022-08-19T02:36:35;25.20;57.17
74416;SHT31;62850;42.428;25.618;2022-08-19T02:39:00;25.24;57.39
74416;SHT31;62850;42.428;25.618;2022-08-19T02:41:29;25.28;56.75
74416;SHT31;62850;42.428;25.618;2022-08-19T02:43:56;25.41;56.82
74416;SHT31;62850;42.428;25.618;2022-08-19T02:46:28;25.41;56.28
74416;SHT31;62850;42.428;25.618;2022-08-19T02:48:59;25.38;56.72
74416;SHT31;62850;42.428;25.618;2022-08-19T02:51:38;25.31;56.94
74416;SHT31;62850;42.428;25.618;2022-08-19T02:54:05;25.31;56.76
74416;SHT31;62850;42.428;25.618;2022-08-19T02:56:33;25.40;57.63
74416;SHT31;62850;42.428;25.618;2022-08-19T02:58:59;25.34;57.16
74416;SHT31;62850;42.428;25.618;2022-08-19T03:01:26;25.26;57.16
74416;SHT31;62850;42.428;25.618;2022-08-19T03:03:52;25.22;57.31
74416;SHT31;62850;42.428;25.618;2022-08-19T03:06:18;25.30;56.54
74416;SHT31;62850;42.428;25.618;2022-08-19T03:08:45;25.30;56.59
74416;SHT31;62850;42.428;25.618;2022-08-19T03:13:44;25.31;57.31
74416;SHT31;62850;42.428;25.618;2022-08-19T03:16:11;25.33;56.86
74416;SHT31;62850;42.428;25.618;2022-08-19T03:18:37;25.37;57.40
74416;SHT31;62850;42.428;25.618;2022-08-19T03:21:03;25.44;56.53
74416;SHT31;62850;42.428;25.618;2022-08-19T03:23:28;25.47;56.83
74416;SHT31;62850;42.428;25.618;2022-08-19T03:25:54;25.31;56.61
74416;SHT31;62850;42.428;25.618;2022-08-19T03:28:20;25.20;56.80
74416;SHT31;62850;42.428;25.618;2022-08-19T03:31:04;25.20;56.67
74416;SHT31;62850;42.428;25.618;2022-08-19T03:33:31;25.13;56.83
74416;SHT31;62850;42.428;25.618;2022-08-19T03:36:18;25.19;56.78
74416;SHT31;62850;42.428;25.618;2022-08-19T03:38:51;25.22;56.84
74416;SHT31;62850;42.428;25.618;2022-08-19T03:41:23;25.30;56.56
74416;SHT31;62850;42.428;25.618;2022-08-19T03:43:49;25.34;56.32
74416;SHT31;62850;42.428;25.618;2022-08-19T03:46:18;25.37;56.21
74416;SHT31;62850;42.428;25.618;2022-08-19T03:48:48;25.28;56.60
74416;SHT31;62850;42.428;25.618;2022-08-19T03:51:24;25.27;56.98
74416;SHT31;62850;42.428;25.618;2022-08-19T03:53:51;25.27;56.44
74416;SHT31;62850;42.428;25.618;2022-08-19T03:56:17;25.24;56.31
74416;SHT31;62850;42.428;25.618;2022-08-19T03:58:43;25.14;56.54
74416;SHT31;62850;42.428;25.618;2022-08-19T04:01:11;25.14;57.12
74416;SHT31;62850;42.428;25.618;2022-08-19T04:03:37;25.13;57.38
74416;SHT31;62850;42.428;25.618;2022-08-19T04:06:15;25.20;57.68
74416;SHT31;62850;42.428;25.618;2022-08-19T04:08:42;25.19;57.78
74416;SHT31;62850;42.428;25.618;2022-08-19T04:11:10;25.14;57.34
74416;SHT31;62850;42.428;25.618;2022-08-19T04:13:36;25.06;57.71
74416;SHT31;62850;42.428;25.618;2022-08-19T04:16:02;25.06;57.90
74416;SHT31;62850;42.428;25.618;2022-08-19T04:18:29;25.10;58.12
74416;SHT31;62850;42.428;25.618;2022-08-19T04:20:55;25.16;58.44
74416;SHT31;62850;42.428;25.618;2022-08-19T04:23:22;25.19;58.65
74416;SHT31;62850;42.428;25.618;2022-08-19T04:25:48;25.28;58.55
74416;SHT31;62850;42.428;25.618;2022-08-19T04:28:14;25.24;59.32
74416;SHT31;62850;42.428;25.618;2022-08-19T04:30:45;25.17;59.49
74416;SHT31;62850;42.428;25.618;2022-08-19T04:33:14;25.24;59.42
74416;SHT31;62850;42.428;25.618;2022-08-19T04:35:44;25.26;59.23
74416;SHT31;62850;42.428;25.618;2022-08-19T04:38:10;25.33;58.61
74416;SHT31;62850;42.428;25.618;2022-08-19T04:40:44;25.35;58.85
74416;SHT31;62850;42.428;25.618;2022-08-19T04:43:29;25.48;58.78
74416;SHT31;62850;42.428;25.618;2022-08-19T04:45:55;25.55;58.44
74416;SHT31;62850;42.428;25.618;2022-08-19T04:48:20;25.62;58.60
74416;SHT31;62850;42.428;25.618;2022-08-19T04:50:52;25.67;58.78
74416;SHT31;62850;42.428;25.618;2022-08-19T04:53:29;25.62;59.02
74416;SHT31;62850;42.428;25.618;2022-08-19T04:55:56;25.62;58.84
74416;SHT31;62850;42.428;25.618;2022-08-19T04:58:25;25.70;58.15
74416;SHT31;62850;42.428;25.618;2022-08-19T05:00:51;25.70;58.13
74416;SHT31;62850;42.428;25.618;2022-08-19T05:03:17;25.67;57.70
74416;SHT31;62850;42.428;25.618;2022-08-19T05:05:44;25.67;57.37
74416;SHT31;62850;42.428;25.618;2022-08-19T05:08:21;25.70;56.72
74416;SHT31;62850;42.428;25.618;2022-08-19T05:10:50;25.72;57.15
74416;SHT31;62850;42.428;25.618;2022-08-19T05:13:18;25.70;57.33
74416;SHT31;62850;42.428;25.618;2022-08-19T05:15:53;25.71;55.96
74416;SHT31;62850;42.428;25.618;2022-08-19T05:18:19;25.70;55.56
74416;SHT31;62850;42.428;25.618;2022-08-19T05:21:16;25.75;55.38
74416;SHT31;62850;42.428;25.618;2022-08-19T05:24:01;25.75;55.21
74416;SHT31;62850;42.428;25.618;2022-08-19T05:26:27;25.88;54.87
74416;SHT31;62850;42.428;25.618;2022-08-19T05:28:54;25.84;54.68
74416;SHT31;62850;42.428;25.618;2022-08-19T05:31:21;25.81;55.05
74416;SHT31;62850;42.428;25.618;2022-08-19T05:33:47;25.96;54.60
74416;SHT31;62850;42.428;25.618;2022-08-19T05:36:13;26.06;54.51
74416;SHT31;62850;42.428;25.618;2022-08-19T05:38:39;26.09;54.23
74416;SHT31;62850;42.428;25.618;2022-08-19T05:41:09;26.16;54.41
74416;SHT31;62850;42.428;25.618;2022-08-19T05:43:35;26.09;54.98
74416;SHT31;62850;42.428;25.618;2022-08-19T05:46:02;26.16;55.24
74416;SHT31;62850;42.428;25.618;2022-08-19T05:48:30;26.28;54.98
74416;SHT31;62850;42.428;25.618;2022-08-19T05:50:56;26.33;54.60
74416;SHT31;62850;42.428;25.618;2022-08-19T05:53:22;26.36;55.13
74416;SHT31;62850;42.428;25.618;2022-08-19T05:55:47;26.37;55.02
74416;SHT31;62850;42.428;25.618;2022-08-19T05:58:13;26.40;54.79
74416;SHT31;62850;42.428;25.618;2022-08-19T06:00:38;26.53;54.31
74416;SHT31;62850;42.428;25.618;2022-08-19T06:03:05;26.65;54.22
74416;SHT31;62850;42.428;25.618;2022-08-19T06:05:31;26.73;54.58
74416;SHT31;62850;42.428;25.618;2022-08-19T06:07:57;26.76;54.82
74416;SHT31;62850;42.428;25.618;2022-08-19T06:10:24;26.90;54.45
74416;SHT31;62850;42.428;25.618;2022-08-19T06:12:51;26.97;53.93
74416;SHT31;62850;42.428;25.618;2022-08-19T06:15:17;27.07;53.26
74416;SHT31;62850;42.428;25.618;2022-08-19T06:17:43;27.11;53.88
74416;SHT31;62850;42.428;25.618;2022-08-19T06:20:14;27.14;53.79
74416;SHT31;62850;42.428;25.618;2022-08-19T06:22:46;27.24;53.56
74416;SHT31;62850;42.428;25.618;2022-08-19T06:25:12;27.35;53.02
74416;SHT31;62850;42.428;25.618;2022-08-19T06:27:39;27.39;53.03
74416;SHT31;62850;42.428;25.618;2022-08-19T06:30:06;27.42;52.94
74416;SHT31;62850;42.428;25.618;2022-08-19T06:32:31;27.49;52.50
74416;SHT31;62850;42.428;25.618;2022-08-19T06:34:57;27.50;52.85
74416;SHT31;62850;42.428;25.618;2022-08-19T06:37:23;27.65;52.86
74416;SHT31;62850;42.428;25.618;2022-08-19T06:39:49;27.67;52.99
74416;SHT31;62850;42.428;25.618;2022-08-19T06:42:15;27.74;52.56
74416;SHT31;62850;42.428;25.618;2022-08-19T06:44:46;27.83;52.86
74416;SHT31;62850;42.428;25.618;2022-08-19T06:47:14;27.87;52.24
74416;SHT31;62850;42.428;25.618;2022-08-19T06:49:40;27.89;51.83
74416;SHT31;62850;42.428;25.618;2022-08-19T06:52:06;27.97;51.97
74416;SHT31;62850;42.428;25.618;2022-08-19T06:54:33;28.06;51.81
74416;SHT31;62850;42.428;25.618;2022-08-19T06:56:59;28.17;51.47
74416;SHT31;62850;42.428;25.618;2022-08-19T06:59:28;28.27;51.08
74416;SHT31;62850;42.428;25.618;2022-08-19T07:01:59;28.34;50.37
74416;SHT31;62850;42.428;25.618;2022-08-19T07:04:28;28.43;50.33
74416;SHT31;62850;42.428;25.618;2022-08-19T07:06:59;28.58;49.63
74416;SHT31;62850;42.428;25.618;2022-08-19T07:09:25;28.65;49.63
74416;SHT31;62850;42.428;25.618;2022-08-19T07:11:52;28.72;49.74
74416;SHT31;62850;42.428;25.618;2022-08-19T07:14:21;28.89;48.98
74416;SHT31;62850;42.428;25.618;2022-08-19T07:16:49;28.99;48.70
74416;SHT31;62850;42.428;25.618;2022-08-19T07:19:16;29.22;48.05
74416;SHT31;62850;42.428;25.618;2022-08-19T07:21:42;29.23;48.16
74416;SHT31;62850;42.428;25.618;2022-08-19T07:24:08;29.43;48.22
74416;SHT31;62850;42.428;25.618;2022-08-19T07:26:38;29.61;46.51
74416;SHT31;62850;42.428;25.618;2022-08-19T07:29:04;29.85;46.52
74416;SHT31;62850;42.428;25.618;2022-08-19T07:31:30;30.15;46.19
74416;SHT31;62850;42.428;25.618;2022-08-19T07:33:57;30.39;45.47
74416;SHT31;62850;42.428;25.618;2022-08-19T07:36:25;30.64;45.66
74416;SHT31;62850;42.428;25.618;2022-08-19T07:38:53;30.83;44.78
74416;SHT31;62850;42.428;25.618;2022-08-19T07:41:25;31.00;44.07
74416;SHT31;62850;42.428;25.618;2022-08-19T07:43:52;31.31;43.33
74416;SHT31;62850;42.428;25.618;2022-08-19T07:46:19;31.45;43.27
74416;SHT31;62850;42.428;25.618;2022-08-19T07:48:46;31.69;43.12
74416;SHT31;62850;42.428;25.618;2022-08-19T07:51:13;31.92;42.84
74416;SHT31;62850;42.428;25.618;2022-08-19T07:53:39;32.19;41.90
74416;SHT31;62850;42.428;25.618;2022-08-19T07:56:05;32.44;41.56
74416;SHT31;62850;42.428;25.618;2022-08-19T07:58:37;32.58;40.58
74416;SHT31;62850;42.428;25.618;2022-08-19T08:01:04;32.84;40.09
74416;SHT31;62850;42.428;25.618;2022-08-19T08:03:31;32.99;40.27
74416;SHT31;62850;42.428;25.618;2022-08-19T08:06:15;33.15;39.94
74416;SHT31;62850;42.428;25.618;2022-08-19T08:09:01;33.25;39.36
74416;SHT31;62850;42.428;25.618;2022-08-19T08:14:19;33.76;38.79
74416;SHT31;62850;42.428;25.618;2022-08-19T08:16:45;33.93;38.31
74416;SHT31;62850;42.428;25.618;2022-08-19T08:19:12;34.04;37.96
74416;SHT31;62850;42.428;25.618;2022-08-19T08:21:40;34.10;37.90
74416;SHT31;62850;42.428;25.618;2022-08-19T08:24:06;34.29;37.13
74416;SHT31;62850;42.428;25.618;2022-08-19T08:26:32;34.45;36.85
74416;SHT31;62850;42.428;25.618;2022-08-19T08:28:58;34.62;37.02
74416;SHT31;62850;42.428;25.618;2022-08-19T08:31:24;34.75;36.38
74416;SHT31;62850;42.428;25.618;2022-08-19T08:33:49;34.88;35.74
74416;SHT31;62850;42.428;25.618;2022-08-19T08:36:15;35.03;35.64
74416;SHT31;62850;42.428;25.618;2022-08-19T08:38:42;35.14;34.48
74416;SHT31;62850;42.428;25.618;2022-08-19T08:44:02;34.83;34.67
74416;SHT31;62850;42.428;25.618;2022-08-19T08:46:35;34.55;35.00
74416;SHT31;62850;42.428;25.618;2022-08-19T08:51:50;34.96;34.59
74416;SHT31;62850;42.428;25.618;2022-08-19T08:54:19;35.03;34.86
74416;SHT31;62850;42.428;25.618;2022-08-19T08:56:46;35.17;34.75
74416;SHT31;62850;42.428;25.618;2022-08-19T08:59:28;35.09;34.46
74416;SHT31;62850;42.428;25.618;2022-08-19T09:01:56;34.24;35.40
74416;SHT31;62850;42.428;25.618;2022-08-19T09:04:21;34.25;35.55
74416;SHT31;62850;42.428;25.618;2022-08-19T09:09:38;35.03;34.72
74416;SHT31;62850;42.428;25.618;2022-08-19T09:15:08;35.37;33.11
74416;SHT31;62850;42.428;25.618;2022-08-19T09:17:35;35.31;31.97
74416;SHT31;62850;42.428;25.618;2022-08-19T09:20:18;34.91;31.44
74416;SHT31;62850;42.428;25.618;2022-08-19T09:22:44;34.54;31.78
74416;SHT31;62850;42.428;25.618;2022-08-19T09:25:12;33.78;32.92
74416;SHT31;62850;42.428;25.618;2022-08-19T09:27:40;33.76;32.97
74416;SHT31;62850;42.428;25.618;2022-08-19T09:30:07;34.17;32.47
74416;SHT31;62850;42.428;25.618;2022-08-19T09:32:33;34.55;32.04
74416;SHT31;62850;42.428;25.618;2022-08-19T09:34:59;34.88;32.06
74416;SHT31;62850;42.428;25.618;2022-08-19T09:37:27;35.26;31.54
74416;SHT31;62850;42.428;25.618;2022-08-19T09:39:53;35.36;31.12
74416;SHT31;62850;42.428;25.618;2022-08-19T09:42:19;35.39;30.64
74416;SHT31;62850;42.428;25.618;2022-08-19T09:44:45;35.46;30.70
74416;SHT31;62850;42.428;25.618;2022-08-19T09:47:12;35.30;30.37
74416;SHT31;62850;42.428;25.618;2022-08-19T09:49:38;35.41;30.25
74416;SHT31;62850;42.428;25.618;2022-08-19T09:52:05;35.74;29.71
74416;SHT31;62850;42.428;25.618;2022-08-19T09:54:33;35.82;30.10
74416;SHT31;62850;42.428;25.618;2022-08-19T09:56:59;35.99;29.74
74416;SHT31;62850;42.428;25.618;2022-08-19T09:59:27;35.99;29.50
74416;SHT31;62850;42.428;25.618;2022-08-19T10:01:53;36.28;29.75
74416;SHT31;62850;42.428;25.618;2022-08-19T10:04:19;36.39;28.65
74416;SHT31;62850;42.428;25.618;2022-08-19T10:06:47;36.33;29.12
74416;SHT31;62850;42.428;25.618;2022-08-19T10:09:15;36.52;29.26
74416;SHT31;62850;42.428;25.618;2022-08-19T10:11:42;36.24;29.71
74416;SHT31;62850;42.428;25.618;2022-08-19T10:14:08;35.82;29.62
74416;SHT31;62850;42.428;25.618;2022-08-19T10:16:36;35.73;29.49
74416;SHT31;62850;42.428;25.618;2022-08-19T10:19:02;35.39;29.25
74416;SHT31;62850;42.428;25.618;2022-08-19T10:21:31;35.71;29.06
74416;SHT31;62850;42.428;25.618;2022-08-19T10:23:59;35.87;28.74
74416;SHT31;62850;42.428;25.618;2022-08-19T10:26:27;35.78;29.21
74416;SHT31;62850;42.428;25.618;2022-08-19T10:28:53;35.49;29.98
74416;SHT31;62850;42.428;25.618;2022-08-19T10:31:22;35.71;29.73
74416;SHT31;62850;42.428;25.618;2022-08-19T10:33:49;36.04;29.40
74416;SHT31;62850;42.428;25.618;2022-08-19T10:36:20;36.06;29.03
74416;SHT31;62850;42.428;25.618;2022-08-19T10:38:49;36.08;29.68
74416;SHT31;62850;42.428;25.618;2022-08-19T10:41:19;35.60;29.84
74416;SHT31;62850;42.428;25.618;2022-08-19T10:43:45;35.41;30.37
74416;SHT31;62850;42.428;25.618;2022-08-19T10:46:14;35.84;29.50
74416;SHT31;62850;42.428;25.618;2022-08-19T10:48:41;35.91;29.69
74416;SHT31;62850;42.428;25.618;2022-08-19T10:51:08;35.85;29.70
74416;SHT31;62850;42.428;25.618;2022-08-19T10:53:52;35.26;30.70
74416;SHT31;62850;42.428;25.618;2022-08-19T10:56:18;35.16;30.69
74416;SHT31;62850;42.428;25.618;2022-08-19T10:59:03;35.49;30.76
74416;SHT31;62850;42.428;25.618;2022-08-19T11:01:30;35.67;30.46
74416;SHT31;62850;42.428;25.618;2022-08-19T11:03:56;35.80;30.11
74416;SHT31;62850;42.428;25.618;2022-08-19T11:06:23;35.44;30.80
74416;SHT31;62850;42.428;25.618;2022-08-19T11:08:51;35.04;31.10
74416;SHT31;62850;42.428;25.618;2022-08-19T11:11:16;35.53;30.58
74416;SHT31;62850;42.428;25.618;2022-08-19T11:13:43;35.70;29.92
74416;SHT31;62850;42.428;25.618;2022-08-19T11:16:11;35.68;29.36
74416;SHT31;62850;42.428;25.618;2022-08-19T11:18:44;35.99;29.29
74416;SHT31;62850;42.428;25.618;2022-08-19T11:21:22;36.15;28.79
74416;SHT31;62850;42.428;25.618;2022-08-19T11:23:51;36.28;28.30
74416;SHT31;62850;42.428;25.618;2022-08-19T11:26:18;36.15;28.82
74416;SHT31;62850;42.428;25.618;2022-08-19T11:28:44;36.33;27.98
74416;SHT31;62850;42.428;25.618;2022-08-19T11:31:16;36.39;28.07
74416;SHT31;62850;42.428;25.618;2022-08-19T11:33:42;36.36;27.66
74416;SHT31;62850;42.428;25.618;2022-08-19T11:36:08;36.60;27.15
74416;SHT31;62850;42.428;25.618;2022-08-19T11:38:34;37.06;26.98
74416;SHT31;62850;42.428;25.618;2022-08-19T11:41:04;37.28;26.91
74416;SHT31;62850;42.428;25.618;2022-08-19T11:43:30;37.18;27.43
74416;SHT31;62850;42.428;25.618;2022-08-19T11:45:56;36.76;27.29
74416;SHT31;62850;42.428;25.618;2022-08-19T11:48:22;36.88;27.36
74416;SHT31;62850;42.428;25.618;2022-08-19T11:50:49;36.28;27.63
74416;SHT31;62850;42.428;25.618;2022-08-19T11:53:16;36.35;27.95
74416;SHT31;62850;42.428;25.618;2022-08-19T11:55:44;36.56;27.62
74416;SHT31;62850;42.428;25.618;2022-08-19T11:58:11;36.39;27.78
74416;SHT31;62850;42.428;25.618;2022-08-19T12:00:38;36.39;28.18
74416;SHT31;62850;42.428;25.618;2022-08-19T12:03:04;36.26;27.86
74416;SHT31;62850;42.428;25.618;2022-08-19T12:05:29;36.18;27.92
74416;SHT31;62850;42.428;25.618;2022-08-19T12:07:55;36.25;27.59
74416;SHT31;62850;42.428;25.618;2022-08-19T12:10:22;36.31;27.89
74416;SHT31;62850;42.428;25.618;2022-08-19T12:12:48;36.39;28.01
74416;SHT31;62850;42.428;25.618;2022-08-19T12:15:14;36.48;27.70
74416;SHT31;62850;42.428;25.618;2022-08-19T12:17:40;36.53;27.67
74416;SHT31;62850;42.428;25.618;2022-08-19T12:20:08;36.46;28.04
74416;SHT31;62850;42.428;25.618;2022-08-19T12:22:36;36.66;27.01
74416;SHT31;62850;42.428;25.618;2022-08-19T12:25:02;36.88;27.41
74416;SHT31;62850;42.428;25.618;2022-08-19T12:27:28;36.90;27.24
74416;SHT31;62850;42.428;25.618;2022-08-19T12:29:53;36.90;28.17
74416;SHT31;62850;42.428;25.618;2022-08-19T12:32:19;36.87;27.40
74416;SHT31;62850;42.428;25.618;2022-08-19T12:34:45;36.73;27.33
74416;SHT31;62850;42.428;25.618;2022-08-19T12:37:12;36.67;27.56
74416;SHT31;62850;42.428;25.618;2022-08-19T12:39:40;36.86;27.57
74416;SHT31;62850;42.428;25.618;2022-08-19T12:42:08;36.76;28.21
74416;SHT31;62850;42.428;25.618;2022-08-19T12:44:35;36.22;28.41
74416;SHT31;62850;42.428;25.618;2022-08-19T12:47:01;36.26;28.17
74416;SHT31;62850;42.428;25.618;2022-08-19T12:49:29;36.52;28.32
74416;SHT31;62850;42.428;25.618;2022-08-19T12:51:54;36.36;28.56
74416;SHT31;62850;42.428;25.618;2022-08-19T12:54:20;36.24;28.70
74416;SHT31;62850;42.428;25.618;2022-08-19T12:56:45;36.12;28.46
74416;SHT31;62850;42.428;25.618;2022-08-19T12:59:11;36.29;28.20
74416;SHT31;62850;42.428;25.618;2022-08-19T13:01:36;36.45;27.82
74416;SHT31;62850;42.428;25.618;2022-08-19T13:04:03;36.59;27.76
74416;SHT31;62850;42.428;25.618;2022-08-19T13:06:29;36.55;27.56
74416;SHT31;62850;42.428;25.618;2022-08-19T13:08:55;36.52;27.93
74416;SHT31;62850;42.428;25.618;2022-08-19T13:11:21;36.31;27.56
74416;SHT31;62850;42.428;25.618;2022-08-19T13:13:51;36.24;27.67
74416;SHT31;62850;42.428;25.618;2022-08-19T13:16:18;36.36;28.28
74416;SHT31;62850;42.428;25.618;2022-08-19T13:18:46;36.52;27.43
74416;SHT31;62850;42.428;25.618;2022-08-19T13:21:17;36.52;27.79
74416;SHT31;62850;42.428;25.618;2022-08-19T13:23:45;36.69;27.76
74416;SHT31;62850;42.428;25.618;2022-08-19T13:26:12;36.87;27.61
74416;SHT31;62850;42.428;25.618;2022-08-19T13:28:39;37.01;27.65
74416;SHT31;62850;42.428;25.618;2022-08-19T13:31:26;36.49;27.49
74416;SHT31;62850;42.428;25.618;2022-08-19T13:34:11;36.24;28.11
74416;SHT31;62850;42.428;25.618;2022-08-19T13:36:37;36.53;27.69
74416;SHT31;62850;42.428;25.618;2022-08-19T13:39:05;36.62;27.45
74416;SHT31;62850;42.428;25.618;2022-08-19T13:41:30;36.62;27.36
74416;SHT31;62850;42.428;25.618;2022-08-19T13:43:57;36.55;27.91
74416;SHT31;62850;42.428;25.618;2022-08-19T13:46:23;36.48;27.13
74416;SHT31;62850;42.428;25.618;2022-08-19T13:48:48;36.62;27.38
74416;SHT31;62850;42.428;25.618;2022-08-19T13:51:16;36.69;27.37
74416;SHT31;62850;42.428;25.618;2022-08-19T13:53:43;36.73;27.06
74416;SHT31;62850;42.428;25.618;2022-08-19T13:56:15;36.70;27.30
74416;SHT31;62850;42.428;25.618;2022-08-19T13:58:42;36.77;27.52
74416;SHT31;62850;42.428;25.618;2022-08-19T14:01:08;37.14;27.40
74416;SHT31;62850;42.428;25.618;2022-08-19T14:03:35;36.97;26.98
74416;SHT31;62850;42.428;25.618;2022-08-19T14:06:00;36.36;27.11
74416;SHT31;62850;42.428;25.618;2022-08-19T14:08:27;36.45;27.38
74416;SHT31;62850;42.428;25.618;2022-08-19T14:10:54;36.59;27.28
74416;SHT31;62850;42.428;25.618;2022-08-19T14:13:21;36.63;27.08
74416;SHT31;62850;42.428;25.618;2022-08-19T14:15:47;36.69;27.18
74416;SHT31;62850;42.428;25.618;2022-08-19T14:18:14;36.70;27.30
74416;SHT31;62850;42.428;25.618;2022-08-19T14:20:41;36.77;27.95
74416;SHT31;62850;42.428;25.618;2022-08-19T14:23:07;36.77;28.14
74416;SHT31;62850;42.428;25.618;2022-08-19T14:25:33;36.67;27.53
74416;SHT31;62850;42.428;25.618;2022-08-19T14:27:59;36.53;27.69
74416;SHT31;62850;42.428;25.618;2022-08-19T14:30:34;36.32;28.62
74416;SHT31;62850;42.428;25.618;2022-08-19T14:33:01;36.29;28.39
74416;SHT31;62850;42.428;25.618;2022-08-19T14:35:28;36.26;28.55
74416;SHT31;62850;42.428;25.618;2022-08-19T14:37:54;36.35;27.49
74416;SHT31;62850;42.428;25.618;2022-08-19T14:40:24;36.32;26.97
74416;SHT31;62850;42.428;25.618;2022-08-19T14:42:54;36.33;27.14
74416;SHT31;62850;42.428;25.618;2022-08-19T14:45:28;36.28;27.83
74416;SHT31;62850;42.428;25.618;2022-08-19T14:47:53;36.25;28.66
74416;SHT31;62850;42.428;25.618;2022-08-19T14:50:19;36.11;28.92
74416;SHT31;62850;42.428;25.618;2022-08-19T14:52:49;36.05;28.64
74416;SHT31;62850;42.428;25.618;2022-08-19T14:55:16;35.82;29.20
74416;SHT31;62850;42.428;25.618;2022-08-19T14:57:42;35.84;29.37
74416;SHT31;62850;42.428;25.618;2022-08-19T15:00:08;35.87;29.98
74416;SHT31;62850;42.428;25.618;2022-08-19T15:02:41;35.68;29.56
74416;SHT31;62850;42.428;25.618;2022-08-19T15:05:09;35.49;29.53
74416;SHT31;62850;42.428;25.618;2022-08-19T15:07:35;35.50;30.22
74416;SHT31;62850;42.428;25.618;2022-08-19T15:10:00;35.33;30.60
74416;SHT31;62850;42.428;25.618;2022-08-19T15:12:26;35.39;31.08
74416;SHT31;62850;42.428;25.618;2022-08-19T15:14:51;35.22;29.97
74416;SHT31;62850;42.428;25.618;2022-08-19T15:17:17;35.26;30.49
74416;SHT31;62850;42.428;25.618;2022-08-19T15:19:44;35.14;30.29
74416;SHT31;62850;42.428;25.618;2022-08-19T15:22:10;35.14;30.41
74416;SHT31;62850;42.428;25.618;2022-08-19T15:24:35;35.03;29.94
74416;SHT31;62850;42.428;25.618;2022-08-19T15:27:03;35.04;30.08
74416;SHT31;62850;42.428;25.618;2022-08-19T15:29:30;34.96;30.62
74416;SHT31;62850;42.428;25.618;2022-08-19T15:31:56;34.93;30.39
74416;SHT31;62850;42.428;25.618;2022-08-19T15:34:23;34.78;30.87
74416;SHT31;62850;42.428;25.618;2022-08-19T15:36:51;34.71;31.00